createdAt,value
2023-03-14T00:02:07.658Z,2.55
2023-03-14T00:05:11.872Z,2.22
2023-03-14T00:08:15.454Z,1.90
2023-03-14T00:11:22.421Z,2.25
2023-03-14T00:14:25.948Z,2.20
2023-03-14T00:17:30.470Z,2.10
2023-03-14T00:20:33.607Z,2.15
2023-03-14T00:23:39.608Z,1.92
2023-03-14T00:26:43.268Z,1.45
2023-03-14T00:29:47.245Z,2.13
2023-03-14T00:32:50.544Z,2.15
2023-03-14T00:36:02.856Z,1.65
2023-03-14T00:39:06.509Z,1.80
2023-03-14T00:42:10.458Z,1.83
2023-03-14T00:45:13.375Z,1.60
2023-03-14T00:48:17.385Z,1.90
2023-03-14T00:51:20.941Z,2.22
2023-03-14T00:54:24.531Z,2.38
2023-03-14T00:57:28.202Z,4.82
2023-03-14T01:00:32.491Z,1.90
2023-03-14T01:03:36.338Z,2.20
2023-03-14T01:06:41.319Z,1.67
2023-03-14T01:09:47.108Z,1.80
2023-03-14T01:12:51.749Z,1.70
2023-03-14T01:15:55.358Z,1.80
2023-03-14T01:18:59.401Z,2.00
2023-03-14T01:22:02.930Z,1.88
2023-03-14T01:25:12.206Z,2.08
2023-03-14T01:28:18.297Z,1.70
2023-03-14T01:31:22.571Z,1.70
2023-03-14T01:34:25.701Z,2.38
2023-03-14T01:37:29.618Z,2.28
2023-03-14T01:40:33.106Z,1.80
2023-03-14T01:43:36.431Z,1.75
2023-03-14T01:46:49.109Z,2.00
2023-03-14T01:50:13.668Z,2.20
2023-03-14T01:53:17.578Z,2.00
2023-03-14T01:56:21.342Z,2.28
2023-03-14T01:59:24.437Z,1.90
2023-03-14T02:02:29.385Z,1.77
2023-03-14T02:05:40.536Z,1.40
2023-03-14T02:08:53.071Z,1.73
2023-03-14T02:12:01.221Z,1.70
2023-03-14T02:15:30.712Z,1.40
2023-03-14T02:18:46.623Z,1.27
2023-03-14T02:22:14.215Z,1.63
2023-03-14T02:25:35.887Z,2.13
2023-03-14T02:28:40.358Z,1.60
2023-03-14T02:31:44.101Z,1.60
2023-03-14T02:34:51.710Z,1.77
2023-03-14T02:38:02.689Z,1.80
2023-03-14T02:41:11.206Z,1.25
2023-03-14T02:44:20.723Z,1.60
2023-03-14T02:47:30.254Z,1.23
2023-03-14T02:50:35.959Z,1.83
2023-03-14T02:53:40.557Z,1.30
2023-03-14T02:56:46.897Z,1.65
2023-03-14T02:59:50.606Z,1.52
2023-03-14T03:02:56.134Z,1.40
2023-03-14T03:06:01.336Z,1.53
2023-03-14T03:09:05.091Z,1.47
2023-03-14T03:12:08.711Z,1.40
2023-03-14T03:15:12.018Z,1.48
2023-03-14T03:18:15.614Z,1.80
2023-03-14T03:21:20.436Z,1.47
2023-03-14T03:24:23.799Z,1.93
2023-03-14T03:27:27.548Z,1.60
2023-03-14T03:30:30.967Z,1.60
2023-03-14T03:33:34.734Z,1.90
2023-03-14T03:36:38.014Z,1.67
2023-03-14T03:39:41.044Z,1.80
2023-03-14T03:42:44.796Z,3.00
2023-03-14T03:45:48.613Z,2.08
2023-03-14T03:49:00.753Z,1.20
2023-03-14T03:52:05.073Z,1.67
2023-03-14T03:55:08.398Z,1.70
2023-03-14T03:58:11.400Z,1.67
2023-03-14T04:01:15.004Z,1.40
2023-03-14T04:04:20.583Z,1.85
2023-03-14T04:07:24.053Z,1.80
2023-03-14T04:10:27.858Z,1.40
2023-03-14T04:13:40.798Z,1.77
2023-03-14T04:16:44.540Z,2.00
2023-03-14T04:19:53.328Z,2.08
2023-03-14T04:22:59.073Z,1.60
2023-03-14T04:26:03.732Z,1.87
2023-03-14T04:29:09.047Z,1.45
2023-03-14T04:32:12.556Z,1.45
2023-03-14T04:35:16.170Z,1.70
2023-03-14T04:38:19.558Z,1.23
2023-03-14T04:41:26.074Z,1.60
2023-03-14T04:44:29.641Z,1.50
2023-03-14T04:47:33.655Z,1.60
2023-03-14T04:50:37.243Z,2.03
2023-03-14T04:53:40.588Z,1.50
2023-03-14T04:56:47.704Z,1.37
2023-03-14T04:59:51.419Z,1.90
2023-03-14T05:03:18.702Z,1.20
2023-03-14T05:06:41.066Z,1.10
2023-03-14T05:10:00.936Z,1.90
2023-03-14T05:13:22.347Z,1.80
2023-03-14T05:16:44.706Z,2.03
2023-03-14T05:20:14.759Z,1.30
2023-03-14T05:23:34.335Z,1.50
2023-03-14T05:26:48.936Z,1.63
2023-03-14T05:30:11.266Z,1.80
2023-03-14T05:33:35.169Z,1.70
2023-03-14T05:37:04.652Z,1.45
2023-03-14T05:40:24.346Z,1.15
2023-03-14T05:43:47.922Z,1.20
2023-03-14T05:47:07.092Z,1.33
2023-03-14T05:50:33.252Z,1.73
2023-03-14T05:53:54.245Z,1.55
2023-03-14T05:57:20.190Z,1.52
2023-03-14T06:00:41.953Z,1.50
2023-03-14T06:04:04.948Z,1.63
2023-03-14T06:07:09.370Z,1.15
2023-03-14T06:10:14.516Z,1.40
2023-03-14T06:13:17.790Z,1.10
2023-03-14T06:16:21.845Z,1.50
2023-03-14T06:19:25.870Z,1.57
2023-03-14T06:22:30.026Z,1.48
2023-03-14T06:25:34.832Z,2.35
2023-03-14T06:28:38.989Z,1.77
2023-03-14T06:31:42.048Z,1.80
2023-03-14T06:34:47.268Z,1.63
2023-03-14T06:37:51.907Z,1.77
2023-03-14T06:40:55.456Z,1.30
2023-03-14T06:44:11.609Z,1.58
2023-03-14T06:47:16.104Z,2.33
2023-03-14T06:50:23.651Z,2.30
2023-03-14T06:53:28.013Z,2.15
2023-03-14T06:56:31.827Z,2.13
2023-03-14T06:59:35.834Z,2.20
2023-03-14T07:02:43.045Z,1.90
2023-03-14T07:06:01.683Z,1.70
2023-03-14T07:09:04.771Z,1.60
2023-03-14T07:12:11.214Z,2.17
2023-03-14T07:15:19.046Z,1.90
2023-03-14T07:18:28.426Z,1.90
2023-03-14T07:21:34.316Z,1.70
2023-03-14T07:24:42.441Z,2.42
2023-03-14T07:27:47.203Z,2.65
2023-03-14T07:30:52.299Z,1.98
2023-03-14T07:34:04.545Z,1.53
2023-03-14T07:37:13.119Z,1.37
2023-03-14T07:40:17.010Z,1.50
2023-03-14T07:43:21.234Z,1.30
2023-03-14T07:46:25.539Z,1.80
2023-03-14T07:49:30.869Z,1.70
2023-03-14T07:52:34.246Z,1.90
2023-03-14T07:55:38.522Z,1.80
2023-03-14T07:58:42.184Z,1.60
2023-03-14T08:01:45.971Z,1.88
2023-03-14T08:04:50.344Z,1.43
2023-03-14T08:07:54.616Z,2.20
2023-03-14T08:11:03.536Z,1.70
2023-03-14T08:14:07.679Z,1.80
2023-03-14T08:17:11.238Z,1.13
2023-03-14T08:20:18.186Z,1.60
2023-03-14T08:23:22.201Z,1.20
2023-03-14T08:26:25.892Z,1.25
2023-03-14T08:29:29.682Z,2.00
2023-03-14T08:32:34.017Z,2.15
2023-03-14T08:35:40.207Z,2.67
2023-03-14T08:38:44.676Z,2.10
2023-03-14T08:41:48.137Z,1.20
2023-03-14T08:44:54.219Z,1.70
2023-03-14T08:48:00.285Z,1.50
2023-03-14T08:51:17.135Z,1.80
2023-03-14T08:54:20.739Z,1.70
2023-03-14T08:57:28.910Z,2.35
2023-03-14T09:00:32.572Z,2.13
2023-03-14T09:03:35.994Z,2.40
2023-03-14T09:06:39.661Z,2.47
2023-03-14T09:09:43.381Z,2.10
2023-03-14T09:12:47.219Z,2.00
2023-03-14T09:15:54.505Z,1.95
2023-03-14T09:19:01.139Z,2.40
2023-03-14T09:22:04.721Z,2.10
2023-03-14T09:25:08.113Z,3.30
2023-03-14T09:28:11.492Z,1.95
2023-03-14T09:31:14.781Z,2.42
2023-03-14T09:34:18.246Z,2.53
2023-03-14T09:37:22.535Z,2.97
2023-03-14T09:40:26.165Z,2.40
2023-03-14T09:43:33.396Z,2.75
2023-03-14T09:46:39.605Z,3.03
2023-03-14T09:49:43.675Z,2.58
2023-03-14T09:52:59.680Z,2.57
2023-03-14T09:56:03.752Z,3.35
2023-03-14T09:59:15.727Z,3.75
2023-03-14T10:02:25.414Z,3.17
2023-03-14T10:05:47.834Z,2.60
2023-03-14T10:08:56.442Z,2.50
2023-03-14T10:12:13.923Z,1.80
2023-03-14T10:16:31.200Z,2.67
2023-03-14T10:20:43.497Z,3.30
2023-03-14T10:34:26.235Z,3.80
2023-03-14T10:47:30.435Z,2.95
2023-03-14T10:50:34.262Z,2.80
2023-03-14T10:53:44.065Z,3.40
2023-03-14T10:56:57.594Z,4.95
2023-03-14T11:00:01.479Z,4.53
2023-03-14T11:03:14.619Z,3.30
2023-03-14T11:06:45.167Z,2.70
2023-03-14T11:10:00.424Z,4.13
2023-03-14T11:13:28.379Z,3.60
2023-03-14T11:16:50.018Z,3.47
2023-03-14T11:20:38.512Z,3.70
2023-03-14T11:23:54.516Z,3.17
2023-03-14T11:27:13.796Z,2.60
2023-03-14T11:30:22.640Z,5.50
2023-03-14T11:33:49.280Z,5.72
2023-03-14T11:37:22.251Z,3.45
2023-03-14T11:40:29.451Z,4.03
2023-03-14T11:43:44.754Z,4.00
2023-03-14T11:47:09.771Z,3.88
2023-03-14T11:50:22.928Z,3.63
2023-03-14T11:53:41.372Z,3.47
2023-03-14T11:56:56.363Z,3.97
2023-03-14T12:00:25.047Z,2.85
2023-03-14T12:03:38.243Z,3.63
2023-03-14T12:06:52.527Z,2.85
2023-03-14T12:09:57.399Z,4.63
2023-03-14T12:13:00.863Z,3.90
2023-03-14T12:16:27.639Z,4.40
2023-03-14T12:19:33.906Z,2.80
2023-03-14T12:22:45.038Z,3.30
2023-03-14T12:25:48.232Z,2.58
2023-03-14T12:29:11.902Z,3.20
2023-03-14T12:32:28.135Z,2.80
2023-03-14T12:35:37.660Z,2.90
2023-03-14T12:39:11.382Z,3.05
2023-03-14T12:42:20.204Z,2.85
2023-03-14T12:45:30.336Z,5.07
2023-03-14T12:48:34.383Z,3.80
2023-03-14T12:51:41.285Z,3.45
2023-03-14T12:55:11.431Z,2.67
2023-03-14T12:58:40.395Z,2.28
2023-03-14T13:02:01.355Z,5.13
2023-03-14T13:05:16.613Z,3.67
2023-03-14T13:08:38.860Z,2.97
2023-03-14T13:11:45.128Z,2.88
2023-03-14T13:14:55.823Z,2.78
2023-03-14T13:18:10.600Z,2.53
2023-03-14T13:21:24.110Z,3.10
2023-03-14T13:24:29.860Z,2.83
2023-03-14T13:27:35.702Z,2.35
2023-03-14T13:30:45.636Z,2.70
2023-03-14T13:33:49.475Z,2.60
2023-03-14T13:36:56.943Z,3.28
2023-03-14T13:40:00.830Z,2.88
2023-03-14T13:43:16.368Z,2.30
2023-03-14T13:46:19.679Z,2.75
2023-03-14T13:49:25.698Z,2.20
2023-03-14T13:52:39.891Z,3.42
2023-03-14T13:55:43.829Z,2.95
2023-03-14T13:58:48.833Z,2.80
2023-03-14T14:01:53.750Z,2.50
2023-03-14T14:04:58.991Z,2.50
2023-03-14T14:08:05.724Z,2.78
2023-03-14T14:11:09.157Z,2.15
2023-03-14T14:14:29.132Z,2.75
2023-03-14T14:17:44.318Z,2.15
2023-03-14T14:20:49.782Z,1.77
2023-03-14T14:23:55.336Z,1.65
2023-03-14T14:27:16.139Z,2.40
2023-03-14T14:30:19.484Z,2.25
2023-03-14T14:33:24.006Z,2.38
2023-03-14T14:36:31.831Z,2.50
2023-03-14T14:39:35.637Z,2.40
2023-03-14T14:42:42.457Z,2.03
2023-03-14T14:45:49.514Z,1.52
2023-03-14T14:48:59.176Z,1.80
2023-03-14T14:52:30.608Z,2.47
2023-03-14T14:55:42.332Z,2.30
2023-03-14T14:58:49.205Z,2.30
2023-03-14T15:01:58.277Z,1.98
2023-03-14T15:05:01.401Z,2.08
2023-03-14T15:08:04.828Z,2.73
2023-03-14T15:11:17.202Z,3.10
2023-03-14T15:14:22.217Z,3.13
2023-03-14T15:17:26.028Z,2.55
2023-03-14T15:20:30.175Z,2.40
2023-03-14T15:23:34.005Z,3.50
2023-03-14T15:26:38.459Z,3.25
2023-03-14T15:29:42.293Z,2.75
2023-03-14T15:32:46.980Z,2.72
2023-03-14T15:35:50.605Z,2.35
2023-03-14T15:38:55.093Z,2.07
2023-03-14T15:41:58.115Z,2.40
2023-03-14T15:45:02.213Z,2.10
2023-03-14T15:48:06.303Z,1.98
2023-03-14T15:51:09.603Z,2.60
2023-03-14T15:54:13.743Z,2.53
2023-03-14T15:57:17.529Z,2.60
2023-03-14T16:00:23.231Z,3.03
2023-03-14T16:03:27.037Z,2.72
2023-03-14T16:06:32.670Z,2.88
2023-03-14T16:09:36.609Z,3.30
2023-03-14T16:12:40.654Z,2.80
2023-03-14T16:15:43.845Z,3.03
2023-03-14T16:18:46.880Z,3.10
2023-03-14T16:21:52.243Z,2.63
2023-03-14T16:24:55.480Z,3.67
2023-03-14T16:28:10.433Z,2.63
2023-03-14T16:31:19.702Z,3.13
2023-03-14T16:34:22.775Z,3.20
2023-03-14T16:37:28.177Z,2.85
2023-03-14T16:40:31.366Z,2.63
2023-03-14T16:43:37.648Z,2.50
2023-03-14T16:46:42.297Z,2.25
2023-03-14T16:49:45.816Z,2.88
2023-03-14T16:52:50.311Z,2.53
2023-03-14T16:55:53.649Z,2.47
2023-03-14T16:58:57.328Z,2.45
2023-03-14T17:02:00.819Z,2.42
2023-03-14T17:05:04.823Z,2.30
2023-03-14T17:08:09.049Z,1.98
2023-03-14T17:11:13.090Z,1.80
2023-03-14T17:14:17.045Z,1.50
2023-03-14T17:17:20.953Z,1.90
2023-03-14T17:20:25.312Z,1.48
2023-03-14T17:23:30.435Z,2.30
2023-03-14T17:26:35.221Z,1.77
2023-03-14T17:29:39.026Z,1.70
2023-03-14T17:32:42.760Z,1.80
2023-03-14T17:35:46.086Z,1.70
2023-03-14T17:38:50.076Z,1.70
2023-03-14T17:41:53.197Z,1.90
2023-03-14T17:44:58.223Z,1.98
2023-03-14T17:48:04.455Z,1.80
2023-03-14T17:51:08.842Z,2.67
2023-03-14T17:54:12.413Z,1.88
2023-03-14T17:57:16.773Z,2.17
2023-03-14T18:00:20.820Z,2.15
2023-03-14T18:03:24.786Z,2.65
2023-03-14T18:06:30.699Z,2.78
2023-03-14T18:09:34.363Z,3.20
2023-03-14T18:12:37.901Z,2.97
2023-03-14T18:15:40.919Z,1.75
2023-03-14T18:18:48.139Z,1.98
2023-03-14T18:21:52.408Z,2.22
2023-03-14T18:24:56.085Z,1.60
2023-03-14T18:27:59.054Z,1.40
2023-03-14T18:31:09.404Z,1.58
2023-03-14T18:34:13.499Z,2.13
2023-03-14T18:37:16.902Z,1.92
2023-03-14T18:40:21.070Z,1.48
2023-03-14T18:43:24.437Z,1.40
2023-03-14T18:46:28.401Z,1.52
2023-03-14T18:49:36.000Z,1.25
2023-03-14T18:52:39.189Z,1.70
2023-03-14T18:55:42.936Z,2.00
2023-03-14T18:58:46.766Z,1.77
2023-03-14T19:01:50.833Z,1.60
2023-03-14T19:04:54.934Z,2.22
2023-03-14T19:07:58.776Z,1.45
2023-03-14T19:11:04.471Z,1.90
2023-03-14T19:14:08.366Z,2.00
2023-03-14T19:17:12.163Z,1.65
2023-03-14T19:20:16.298Z,1.60
2023-03-14T19:23:19.322Z,1.95
2023-03-14T19:26:23.771Z,1.90
2023-03-14T19:29:27.398Z,1.50
2023-03-14T19:32:32.196Z,2.45
2023-03-14T19:35:36.246Z,2.30
2023-03-14T19:38:39.295Z,1.40
2023-03-14T19:41:43.406Z,1.73
2023-03-14T19:44:47.215Z,1.80
2023-03-14T19:47:51.422Z,1.35
2023-03-14T19:50:55.181Z,1.60
2023-03-14T19:54:00.126Z,1.30
2023-03-14T19:57:06.008Z,1.60
2023-03-14T20:00:17.688Z,1.30
2023-03-14T20:03:24.348Z,2.50
2023-03-14T20:06:28.226Z,2.75
2023-03-14T20:09:32.769Z,2.25
2023-03-14T20:12:35.958Z,2.05
2023-03-14T20:15:40.805Z,2.20
2023-03-14T20:18:43.950Z,2.22
2023-03-14T20:21:48.277Z,2.03
2023-03-14T20:24:53.154Z,1.92
2023-03-14T20:27:57.719Z,2.53
2023-03-14T20:31:01.898Z,1.77
2023-03-14T20:34:06.527Z,1.75
2023-03-14T20:37:10.200Z,2.38
2023-03-14T20:40:14.593Z,1.65
2023-03-14T20:43:18.928Z,1.80
2023-03-14T20:46:23.076Z,1.97
2023-03-14T20:49:26.481Z,1.90
2023-03-14T20:52:29.539Z,1.63
2023-03-14T20:55:32.535Z,1.92
2023-03-14T20:58:35.937Z,1.95
2023-03-14T21:04:59.599Z,2.92
2023-03-14T21:08:03.105Z,2.35
2023-03-14T21:11:07.893Z,2.30
2023-03-14T21:14:10.889Z,2.05
2023-03-14T21:17:14.121Z,2.00
2023-03-14T21:20:17.285Z,2.10
2023-03-14T21:23:20.771Z,2.13
2023-03-14T21:26:24.507Z,1.75
2023-03-14T21:29:28.795Z,2.28
2023-03-14T21:32:32.214Z,1.57
2023-03-14T21:35:35.406Z,2.05
2023-03-14T21:38:38.733Z,2.10
2023-03-14T21:41:42.140Z,2.35
2023-03-14T21:44:49.027Z,1.85
2023-03-14T21:47:54.256Z,1.77
2023-03-14T21:50:58.017Z,1.83
2023-03-14T21:54:01.466Z,2.00
2023-03-14T21:57:06.748Z,2.10
2023-03-14T22:00:13.464Z,2.17
2023-03-14T22:03:23.978Z,1.30
2023-03-14T22:06:29.292Z,1.80
2023-03-14T22:09:33.992Z,1.83
2023-03-14T22:12:38.445Z,1.60
2023-03-14T22:15:45.939Z,1.55
2023-03-14T22:18:50.033Z,1.40
2023-03-14T22:21:54.100Z,1.60
2023-03-14T22:24:59.294Z,1.52
2023-03-14T22:28:03.756Z,1.67
2023-03-14T22:31:07.709Z,1.67
2023-03-14T22:34:11.582Z,2.10
2023-03-14T22:37:15.443Z,3.55
2023-03-14T22:40:19.850Z,3.10
2023-03-14T22:43:23.589Z,2.90
2023-03-14T22:46:27.081Z,2.28
2023-03-14T22:49:33.122Z,1.23
2023-03-14T22:52:36.575Z,2.25
2023-03-14T22:55:39.542Z,2.08
2023-03-14T22:58:43.593Z,1.88
2023-03-14T23:01:46.693Z,2.42
2023-03-14T23:04:49.958Z,1.67
2023-03-14T23:07:54.083Z,2.10
2023-03-14T23:11:06.498Z,1.70
2023-03-14T23:14:10.772Z,1.88
2023-03-14T23:17:14.993Z,1.80
2023-03-14T23:20:18.275Z,2.20
2023-03-14T23:23:21.431Z,2.58
2023-03-14T23:26:27.462Z,2.33
2023-03-14T23:29:30.564Z,2.13
2023-03-14T23:32:34.221Z,1.83
2023-03-14T23:35:37.371Z,2.00
2023-03-14T23:38:43.704Z,2.30
2023-03-14T23:41:47.800Z,1.77
2023-03-14T23:44:54.390Z,1.90
2023-03-14T23:47:58.390Z,2.30
2023-03-14T23:51:04.912Z,2.57
2023-03-14T23:54:08.646Z,1.95
2023-03-14T23:57:12.280Z,3.22
